Time;durP1;ratioP1;P1;durP2;ratioP2;P2;SDS_P1;SDS_P2;PMS_P1;PMS_P2;Temp;Humidity;BMP_temperature;BMP_pressure;BME280_temperature;BME280_humidity;BME280_pressure;Samples;Min_cycle;Max_cycle;Signal;HPM_P1;HPM_P2
2022/06/28 00:00:24;;;;;;;22.95;7.30;;;;;;;;;;5108123;28;20046;-73
2022/06/28 00:02:51;;;;;;;19.48;5.93;;;;;;;;;;5106419;28;20084;-72
2022/06/28 00:05:17;;;;;;;20.15;6.10;;;;;;;;;;5108299;28;20030;-72
2022/06/28 00:07:43;;;;;;;24.42;6.72;;;;;;;;;;5107572;28;20598;-72
2022/06/28 00:10:10;;;;;;;19.95;6.50;;;;;;;;;;5107421;28;20024;-72
2022/06/28 00:12:37;;;;;;;29.30;6.75;;;;;;;;;;5106872;28;20057;-72
2022/06/28 00:17:49;;;;;;;22.73;6.25;;;;;;;;;;5107806;28;20123;-72
2022/06/28 00:20:15;;;;;;;19.23;5.70;;;;;;;;;;5107632;28;20027;-72
2022/06/28 00:22:41;;;;;;;22.73;6.25;;;;;;;;;;5105963;28;20030;-72
2022/06/28 00:25:07;;;;;;;22.65;5.95;;;;;;;;;;5107236;28;20516;-72
2022/06/28 00:27:33;;;;;;;25.95;6.45;;;;;;;;;;5107267;28;20115;-72
2022/06/28 00:30:00;;;;;;;20.25;7.10;;;;;;;;;;5105745;28;20025;-72
2022/06/28 00:32:26;;;;;;;16.45;6.65;;;;;;;;;;5107632;28;20016;-72
2022/06/28 00:34:52;;;;;;;28.35;7.18;;;;;;;;;;5121958;27;20027;-72
2022/06/28 00:37:18;;;;;;;17.13;6.45;;;;;;;;;;5093144;28;20118;-73
2022/06/28 00:39:44;;;;;;;24.92;7.78;;;;;;;;;;5107363;28;20030;-72
2022/06/28 00:42:11;;;;;;;23.50;6.78;;;;;;;;;;5088892;28;20398;-73
2022/06/28 00:44:37;;;;;;;20.27;6.68;;;;;;;;;;5107060;28;20052;-72
2022/06/28 00:47:04;;;;;;;25.48;7.65;;;;;;;;;;5093079;28;20391;-76
2022/06/28 00:49:30;;;;;;;24.05;7.20;;;;;;;;;;5104967;28;20019;-74
2022/06/28 00:52:01;;;;;;;21.25;7.20;;;;;;;;;;5106846;28;20024;-73
2022/06/28 00:54:27;;;;;;;20.95;6.78;;;;;;;;;;5106972;28;20036;-73
2022/06/28 00:56:53;;;;;;;28.02;7.30;;;;;;;;;;5105604;28;20024;-75
2022/06/28 00:59:19;;;;;;;17.67;6.45;;;;;;;;;;5107276;28;20019;-76
2022/06/28 01:01:45;;;;;;;26.15;8.15;;;;;;;;;;5107121;28;20016;-74
2022/06/28 01:04:11;;;;;;;25.65;7.28;;;;;;;;;;5106857;28;20019;-75
2022/06/28 01:06:39;;;;;;;23.23;6.65;;;;;;;;;;5106814;28;20031;-73
2022/06/28 01:09:05;;;;;;;17.50;6.85;;;;;;;;;;5105760;28;20027;-75
2022/06/28 01:11:32;;;;;;;23.10;6.55;;;;;;;;;;5106821;28;20053;-76
2022/06/28 01:13:59;;;;;;;19.58;6.80;;;;;;;;;;5106472;28;20102;-73
2022/06/28 01:16:27;;;;;;;18.20;6.40;;;;;;;;;;5105149;28;20039;-77
2022/06/28 01:18:53;;;;;;;23.80;6.40;;;;;;;;;;5106863;28;20612;-76
2022/06/28 01:21:20;;;;;;;21.95;7.20;;;;;;;;;;5106469;28;20027;-76
2022/06/28 01:23:47;;;;;;;19.08;6.72;;;;;;;;;;5106796;28;20508;-75
2022/06/28 01:26:14;;;;;;;26.80;6.80;;;;;;;;;;5104923;28;20038;-76
2022/06/28 01:28:41;;;;;;;21.70;6.53;;;;;;;;;;5106294;28;20060;-75
2022/06/28 01:31:07;;;;;;;21.08;6.70;;;;;;;;;;5106623;28;20031;-75
2022/06/28 01:33:36;;;;;;;24.00;6.90;;;;;;;;;;5105454;28;20020;-76
2022/06/28 01:36:02;;;;;;;19.38;6.35;;;;;;;;;;5084757;28;20107;-76
2022/06/28 01:38:29;;;;;;;30.50;7.07;;;;;;;;;;5105723;27;20024;-76
2022/06/28 01:40:55;;;;;;;23.77;6.40;;;;;;;;;;5098836;28;20034;-73
2022/06/28 01:43:21;;;;;;;26.20;7.47;;;;;;;;;;5093956;28;20048;-76
2022/06/28 01:45:48;;;;;;;24.15;6.82;;;;;;;;;;5101851;28;20128;-76
2022/06/28 01:48:17;;;;;;;24.35;5.93;;;;;;;;;;5106386;28;20035;-76
2022/06/28 01:50:44;;;;;;;26.08;6.60;;;;;;;;;;5104449;28;20069;-73
2022/06/28 01:53:10;;;;;;;24.60;7.32;;;;;;;;;;5109504;28;20024;-72
2022/06/28 01:55:36;;;;;;;19.65;6.22;;;;;;;;;;5106547;28;20859;-74
2022/06/28 01:58:03;;;;;;;17.85;5.55;;;;;;;;;;5110361;28;20071;-77
2022/06/28 02:00:29;;;;;;;22.63;6.88;;;;;;;;;;5108268;28;20031;-75
2022/06/28 02:02:55;;;;;;;17.83;6.25;;;;;;;;;;5110206;28;20012;-76
2022/06/28 02:05:21;;;;;;;25.85;7.43;;;;;;;;;;5110212;28;20045;-75
2022/06/28 02:07:49;;;;;;;25.88;6.60;;;;;;;;;;5106359;28;20055;-76
2022/06/28 02:10:15;;;;;;;19.40;7.38;;;;;;;;;;5098084;28;20609;-73
2022/06/28 02:12:42;;;;;;;20.73;6.20;;;;;;;;;;5109885;28;20035;-75
2022/06/28 02:15:08;;;;;;;27.25;7.03;;;;;;;;;;5124304;27;20474;-75
2022/06/28 02:17:34;;;;;;;18.35;6.22;;;;;;;;;;5110310;28;20023;-77
2022/06/28 02:20:01;;;;;;;35.05;7.22;;;;;;;;;;5110304;28;20030;-75
2022/06/28 02:22:27;;;;;;;21.80;6.38;;;;;;;;;;5109770;28;20019;-76
2022/06/28 02:24:53;;;;;;;20.20;6.72;;;;;;;;;;5109939;28;20027;-76
2022/06/28 02:27:20;;;;;;;18.23;5.95;;;;;;;;;;5108377;28;20399;-75
2022/06/28 02:29:46;;;;;;;23.02;7.00;;;;;;;;;;5109622;28;20050;-72
2022/06/28 02:32:12;;;;;;;20.83;6.70;;;;;;;;;;5109822;28;20028;-76
2022/06/28 02:40:21;;;;;;;26.80;7.05;;;;;;;;;;5109702;28;20567;-75
2022/06/28 02:42:52;;;;;;;23.60;6.90;;;;;;;;;;5098670;28;20044;-74
2022/06/28 02:45:18;;;;;;;20.53;6.23;;;;;;;;;;5105159;28;20043;-76
2022/06/28 02:47:45;;;;;;;25.63;7.13;;;;;;;;;;5109534;28;20057;-77
2022/06/28 02:50:11;;;;;;;17.42;5.80;;;;;;;;;;5109451;28;20023;-76
2022/06/28 02:52:37;;;;;;;23.58;7.22;;;;;;;;;;5108920;28;20307;-75
2022/06/28 02:55:04;;;;;;;23.23;6.57;;;;;;;;;;5107920;28;20459;-74
2022/06/28 02:57:30;;;;;;;19.63;6.70;;;;;;;;;;5109240;28;20024;-76
2022/06/28 02:59:56;;;;;;;21.80;6.45;;;;;;;;;;5109546;28;20027;-75
2022/06/28 03:02:23;;;;;;;20.20;6.05;;;;;;;;;;5108930;28;20119;-75
2022/06/28 03:04:49;;;;;;;23.52;6.82;;;;;;;;;;5109045;28;20394;-72
2022/06/28 03:07:15;;;;;;;25.08;7.20;;;;;;;;;;5096395;28;20040;-75
2022/06/28 03:09:41;;;;;;;22.67;6.95;;;;;;;;;;5102362;28;20020;-75
2022/06/28 03:12:08;;;;;;;27.75;6.82;;;;;;;;;;5104328;28;20106;-75
2022/06/28 03:14:34;;;;;;;29.10;7.68;;;;;;;;;;5103137;28;20020;-73
2022/06/28 03:17:00;;;;;;;24.42;6.43;;;;;;;;;;5099712;28;20028;-77
2022/06/28 03:19:27;;;;;;;23.85;7.15;;;;;;;;;;5117283;27;20394;-75
2022/06/28 03:21:53;;;;;;;21.73;6.63;;;;;;;;;;5106691;27;20489;-76
2022/06/28 03:24:19;;;;;;;17.20;6.32;;;;;;;;;;5114618;27;20031;-75
2022/06/28 03:26:45;;;;;;;23.08;6.03;;;;;;;;;;5101666;28;20035;-75
2022/06/28 03:29:11;;;;;;;30.55;6.90;;;;;;;;;;5107558;27;20030;-74
2022/06/28 03:31:37;;;;;;;21.92;6.43;;;;;;;;;;5101095;28;20015;-75
2022/06/28 03:34:03;;;;;;;26.75;7.07;;;;;;;;;;5092096;28;20028;-74
2022/06/28 03:36:30;;;;;;;30.77;7.38;;;;;;;;;;5101215;28;20032;-75
2022/06/28 03:38:56;;;;;;;18.90;6.65;;;;;;;;;;5101457;27;20016;-73
2022/06/28 03:41:22;;;;;;;16.98;6.82;;;;;;;;;;5104685;27;20035;-73
2022/06/28 03:43:51;;;;;;;25.45;7.38;;;;;;;;;;5086504;28;20516;-76
2022/06/28 03:46:18;;;;;;;29.17;7.20;;;;;;;;;;5116946;27;20454;-72
2022/06/28 03:48:44;;;;;;;28.70;6.93;;;;;;;;;;5101077;28;20024;-72
2022/06/28 03:51:11;;;;;;;28.90;8.35;;;;;;;;;;5099356;28;20028;-72
2022/06/28 03:53:37;;;;;;;34.30;8.07;;;;;;;;;;5101233;28;20030;-73
2022/06/28 03:56:04;;;;;;;28.20;8.60;;;;;;;;;;5100651;28;20024;-72
2022/06/28 03:58:30;;;;;;;30.15;9.10;;;;;;;;;;5099677;28;20024;-72
2022/06/28 04:00:56;;;;;;;23.48;7.72;;;;;;;;;;5100254;28;20102;-72
2022/06/28 04:03:23;;;;;;;26.08;7.20;;;;;;;;;;5100792;28;20031;-72
2022/06/28 04:05:49;;;;;;;20.98;6.95;;;;;;;;;;5099161;28;20023;-72
2022/06/28 04:08:15;;;;;;;31.75;7.72;;;;;;;;;;5097850;28;20036;-72
2022/06/28 04:10:41;;;;;;;23.73;7.57;;;;;;;;;;5100444;28;20061;-72
2022/06/28 04:13:07;;;;;;;24.20;7.82;;;;;;;;;;5116576;27;20059;-71
2022/06/28 04:15:35;;;;;;;34.42;8.55;;;;;;;;;;5097897;27;20015;-72
2022/06/28 04:18:01;;;;;;;25.65;8.55;;;;;;;;;;5101821;27;20031;-72
2022/06/28 04:20:27;;;;;;;25.38;8.13;;;;;;;;;;5100061;28;20085;-72
2022/06/28 04:22:53;;;;;;;33.05;8.50;;;;;;;;;;5112836;27;20012;-72
2022/06/28 04:25:19;;;;;;;29.10;8.40;;;;;;;;;;5102663;28;20402;-72
2022/06/28 04:27:45;;;;;;;29.70;8.15;;;;;;;;;;5101021;28;20031;-71
2022/06/28 04:30:12;;;;;;;27.02;8.38;;;;;;;;;;5102630;28;20016;-72
2022/06/28 04:32:38;;;;;;;22.95;7.65;;;;;;;;;;5101855;28;20036;-72
2022/06/28 04:35:04;;;;;;;30.83;8.23;;;;;;;;;;5102444;28;20055;-72
2022/06/28 04:37:30;;;;;;;31.95;7.68;;;;;;;;;;5100830;28;20076;-72
2022/06/28 04:39:56;;;;;;;26.33;8.32;;;;;;;;;;5102286;28;20020;-72
2022/06/28 04:42:23;;;;;;;24.38;8.20;;;;;;;;;;5096491;28;20024;-72
2022/06/28 04:44:49;;;;;;;26.02;7.13;;;;;;;;;;5093736;28;20036;-72
2022/06/28 04:47:15;;;;;;;27.45;8.75;;;;;;;;;;5100808;28;20027;-72
2022/06/28 04:49:41;;;;;;;26.33;7.95;;;;;;;;;;5115151;27;20027;-72
2022/06/28 04:52:07;;;;;;;25.60;8.20;;;;;;;;;;5100300;28;20061;-72
2022/06/28 04:54:33;;;;;;;28.30;8.57;;;;;;;;;;5099639;28;20016;-72
2022/06/28 04:57:00;;;;;;;33.95;8.88;;;;;;;;;;5107026;27;20027;-72
2022/06/28 04:59:26;;;;;;;32.08;9.20;;;;;;;;;;5098706;28;20466;-72
2022/06/28 05:01:52;;;;;;;49.97;10.20;;;;;;;;;;5103123;27;20121;-72
2022/06/28 05:04:18;;;;;;;35.83;9.35;;;;;;;;;;5102952;28;20096;-73
2022/06/28 05:06:44;;;;;;;27.50;8.32;;;;;;;;;;5105803;27;20114;-73
2022/06/28 05:09:10;;;;;;;29.10;8.23;;;;;;;;;;5111196;27;20492;-72
2022/06/28 05:11:37;;;;;;;36.25;8.85;;;;;;;;;;5112511;27;20026;-72
2022/06/28 05:14:03;;;;;;;32.55;9.45;;;;;;;;;;5110170;27;20464;-73
2022/06/28 05:16:29;;;;;;;28.50;8.73;;;;;;;;;;5107594;28;20034;-72
2022/06/28 05:18:55;;;;;;;23.40;9.15;;;;;;;;;;5111852;28;20019;-72
2022/06/28 05:21:21;;;;;;;30.40;10.07;;;;;;;;;;5106139;27;20130;-73
2022/06/28 05:23:47;;;;;;;39.72;12.82;;;;;;;;;;5109751;28;20026;-72
2022/06/28 05:26:14;;;;;;;35.60;11.20;;;;;;;;;;5110691;28;20024;-71
2022/06/28 05:28:40;;;;;;;37.33;10.40;;;;;;;;;;5107901;28;20020;-72
2022/06/28 05:31:06;;;;;;;39.78;10.13;;;;;;;;;;5107832;27;20113;-71
2022/06/28 05:33:32;;;;;;;35.92;11.95;;;;;;;;;;5110061;27;20061;-72
2022/06/28 05:35:58;;;;;;;35.17;11.02;;;;;;;;;;5115892;27;20027;-72
2022/06/28 05:38:25;;;;;;;34.67;11.18;;;;;;;;;;5112465;27;20019;-72
2022/06/28 05:40:51;;;;;;;28.10;10.68;;;;;;;;;;5109392;27;20028;-72
2022/06/28 05:43:17;;;;;;;34.55;10.45;;;;;;;;;;5089096;28;20514;-72
2022/06/28 05:45:43;;;;;;;33.17;11.10;;;;;;;;;;5090864;28;20479;-72
2022/06/28 05:48:09;;;;;;;33.60;10.77;;;;;;;;;;5105251;28;20635;-72
2022/06/28 05:50:35;;;;;;;32.90;11.00;;;;;;;;;;5105072;28;20023;-72
2022/06/28 05:53:01;;;;;;;30.17;9.48;;;;;;;;;;5103854;28;20391;-72
2022/06/28 05:55:28;;;;;;;34.05;11.15;;;;;;;;;;5105542;28;20654;-71
2022/06/28 05:57:55;;;;;;;35.80;11.60;;;;;;;;;;5105534;28;20015;-71
2022/06/28 06:00:21;;;;;;;21.90;9.98;;;;;;;;;;5105314;28;20070;-70
2022/06/28 06:02:47;;;;;;;32.30;10.50;;;;;;;;;;5101780;28;20020;-71
2022/06/28 06:05:14;;;;;;;33.20;11.48;;;;;;;;;;5096923;27;20035;-71
2022/06/28 06:07:40;;;;;;;26.10;10.93;;;;;;;;;;5102266;28;20058;-71
2022/06/28 06:10:06;;;;;;;30.92;11.52;;;;;;;;;;5104747;28;20027;-71
2022/06/28 06:12:32;;;;;;;25.27;11.10;;;;;;;;;;5104740;28;20062;-72
2022/06/28 06:14:59;;;;;;;33.20;12.95;;;;;;;;;;5105058;28;20083;-73
2022/06/28 06:17:25;;;;;;;34.13;12.07;;;;;;;;;;5103088;28;20020;-72
2022/06/28 06:19:51;;;;;;;41.53;13.40;;;;;;;;;;5090192;28;20046;-73
2022/06/28 06:22:18;;;;;;;32.40;13.63;;;;;;;;;;5106316;27;20463;-72
2022/06/28 06:24:44;;;;;;;29.33;12.70;;;;;;;;;;5111793;27;20027;-72
2022/06/28 06:27:10;;;;;;;32.75;12.93;;;;;;;;;;5108652;27;20036;-72
2022/06/28 06:29:36;;;;;;;28.17;12.13;;;;;;;;;;5093670;28;20110;-73
2022/06/28 06:32:03;;;;;;;31.83;13.02;;;;;;;;;;5097036;28;20134;-73
2022/06/28 06:34:29;;;;;;;29.77;12.95;;;;;;;;;;5086961;28;20027;-73
2022/06/28 06:36:55;;;;;;;25.58;10.93;;;;;;;;;;5082140;28;20113;-73
2022/06/28 06:39:21;;;;;;;31.23;12.32;;;;;;;;;;5082707;28;20024;-73
2022/06/28 06:41:47;;;;;;;26.85;14.23;;;;;;;;;;5084802;28;20024;-72
2022/06/28 06:44:13;;;;;;;35.97;12.75;;;;;;;;;;5085892;28;20108;-73
2022/06/28 06:46:39;;;;;;;34.20;11.98;;;;;;;;;;5084939;28;20028;-73
2022/06/28 06:49:06;;;;;;;24.75;11.43;;;;;;;;;;5084900;28;20027;-74
2022/06/28 06:51:32;;;;;;;29.33;11.88;;;;;;;;;;5081477;28;20014;-73
2022/06/28 06:53:58;;;;;;;34.83;11.68;;;;;;;;;;5086571;28;20036;-73
2022/06/28 06:56:24;;;;;;;44.17;12.68;;;;;;;;;;5095109;28;20050;-73
2022/06/28 06:58:50;;;;;;;25.17;12.00;;;;;;;;;;5089500;27;20027;-73
2022/06/28 07:01:17;;;;;;;25.55;11.50;;;;;;;;;;5087491;27;20076;-73
2022/06/28 07:03:44;;;;;;;30.33;10.75;;;;;;;;;;5100000;28;20016;-74
2022/06/28 07:06:14;;;;;;;24.90;11.85;;;;;;;;;;5112271;27;20059;-73
2022/06/28 07:08:41;;;;;;;40.10;14.05;;;;;;;;;;5118954;27;20039;-73
2022/06/28 07:11:07;;;;;;;37.00;12.90;;;;;;;;;;5112834;27;20024;-72
2022/06/28 07:13:33;;;;;;;27.08;11.43;;;;;;;;;;5118049;27;20011;-75
2022/06/28 07:16:01;;;;;;;28.02;12.13;;;;;;;;;;5116803;27;20031;-73
2022/06/28 07:18:28;;;;;;;31.33;11.82;;;;;;;;;;5115122;27;20226;-73
2022/06/28 07:20:55;;;;;;;37.67;10.63;;;;;;;;;;5104830;27;20019;-74
2022/06/28 07:23:21;;;;;;;28.75;9.40;;;;;;;;;;5114088;27;20023;-73
2022/06/28 07:25:47;;;;;;;31.15;9.73;;;;;;;;;;5116970;27;20019;-75
2022/06/28 07:28:13;;;;;;;24.25;8.40;;;;;;;;;;5112072;27;20073;-72
2022/06/28 07:30:40;;;;;;;36.60;10.02;;;;;;;;;;5118225;27;20259;-72
2022/06/28 07:33:06;;;;;;;27.98;8.75;;;;;;;;;;5113062;27;20019;-72
2022/06/28 07:35:32;;;;;;;37.20;9.43;;;;;;;;;;5115558;27;20022;-72
2022/06/28 07:37:58;;;;;;;33.92;10.15;;;;;;;;;;5116054;27;20027;-73
2022/06/28 07:40:25;;;;;;;31.70;9.52;;;;;;;;;;5101717;27;20691;-73
2022/06/28 07:42:51;;;;;;;36.25;10.10;;;;;;;;;;5091376;28;20043;-78
2022/06/28 07:45:18;;;;;;;39.85;9.65;;;;;;;;;;5096145;28;20020;-72
2022/06/28 07:47:47;;;;;;;32.33;9.85;;;;;;;;;;5100199;28;20475;-72
2022/06/28 07:53:02;;;;;;;27.08;9.13;;;;;;;;;;5099605;27;20697;-74
2022/06/28 07:55:29;;;;;;;32.20;9.10;;;;;;;;;;5114386;27;20008;-73
2022/06/28 07:57:55;;;;;;;25.77;8.68;;;;;;;;;;5118408;27;20026;-73
2022/06/28 08:00:21;;;;;;;41.63;10.75;;;;;;;;;;5121122;27;20026;-73
2022/06/28 08:02:48;;;;;;;34.35;9.77;;;;;;;;;;5110021;27;20097;-73
2022/06/28 08:05:14;;;;;;;41.67;10.43;;;;;;;;;;5106856;27;20019;-73
2022/06/28 08:07:41;;;;;;;31.77;10.07;;;;;;;;;;5114997;27;20032;-73
2022/06/28 08:10:07;;;;;;;27.30;9.45;;;;;;;;;;5121356;27;20023;-75
2022/06/28 08:12:34;;;;;;;31.70;9.65;;;;;;;;;;5108202;27;20028;-77
2022/06/28 08:15:00;;;;;;;34.10;9.90;;;;;;;;;;5112005;27;20499;-73
2022/06/28 08:17:26;;;;;;;34.13;10.82;;;;;;;;;;5118822;27;20020;-74
2022/06/28 08:19:52;;;;;;;35.83;10.07;;;;;;;;;;5119493;27;20116;-74
2022/06/28 08:22:19;;;;;;;32.75;9.85;;;;;;;;;;5108886;27;20015;-76
2022/06/28 08:24:46;;;;;;;34.55;10.57;;;;;;;;;;5104277;27;20023;-73
2022/06/28 08:27:12;;;;;;;33.75;9.77;;;;;;;;;;5119113;27;20310;-72
2022/06/28 08:29:41;;;;;;;39.65;10.35;;;;;;;;;;5110228;27;20441;-73
2022/06/28 08:32:08;;;;;;;29.15;9.45;;;;;;;;;;5096311;27;20028;-73
2022/06/28 08:34:34;;;;;;;36.65;10.00;;;;;;;;;;5104348;27;20038;-74
2022/06/28 08:37:00;;;;;;;36.88;10.00;;;;;;;;;;5103992;27;20023;-77
2022/06/28 08:39:26;;;;;;;29.08;9.90;;;;;;;;;;5105289;27;20016;-73
2022/06/28 08:41:53;;;;;;;38.00;10.60;;;;;;;;;;5077238;28;20027;-74
2022/06/28 08:44:20;;;;;;;45.55;10.10;;;;;;;;;;5100012;28;20035;-72
2022/06/28 08:46:51;;;;;;;36.95;10.18;;;;;;;;;;5100304;28;20084;-72
2022/06/28 08:49:34;;;;;;;32.60;9.18;;;;;;;;;;5110915;27;20020;-76
2022/06/28 08:52:00;;;;;;;29.33;9.68;;;;;;;;;;5105858;27;20110;-73
2022/06/28 08:54:27;;;;;;;30.73;9.27;;;;;;;;;;5100021;28;20077;-73
2022/06/28 08:56:53;;;;;;;36.78;9.65;;;;;;;;;;5101304;28;20596;-73
2022/06/28 08:59:22;;;;;;;37.50;10.05;;;;;;;;;;5101117;28;20164;-73
2022/06/28 09:01:49;;;;;;;37.35;10.23;;;;;;;;;;5086483;28;20035;-73
2022/06/28 09:04:15;;;;;;;34.20;10.45;;;;;;;;;;5100898;28;20636;-72
2022/06/28 09:06:42;;;;;;;38.72;9.70;;;;;;;;;;5098134;28;20052;-75
2022/06/28 09:09:08;;;;;;;38.33;9.98;;;;;;;;;;5105319;27;20110;-72
2022/06/28 09:11:41;;;;;;;29.17;10.00;;;;;;;;;;5108698;27;20039;-74
2022/06/28 09:14:21;;;;;;;33.90;10.55;;;;;;;;;;5111621;27;20543;-72
2022/06/28 09:16:47;;;;;;;28.83;9.23;;;;;;;;;;5109279;27;20075;-72
2022/06/28 09:19:13;;;;;;;30.92;9.15;;;;;;;;;;5105216;28;20091;-73
2022/06/28 09:21:43;;;;;;;25.15;9.13;;;;;;;;;;5107876;27;20032;-72
2022/06/28 09:24:09;;;;;;;34.72;9.68;;;;;;;;;;5093194;28;20031;-73
2022/06/28 09:26:35;;;;;;;32.58;9.65;;;;;;;;;;5102016;28;20160;-74
2022/06/28 09:29:01;;;;;;;27.60;9.40;;;;;;;;;;5116085;28;20035;-76
2022/06/28 09:31:28;;;;;;;25.05;9.02;;;;;;;;;;5106038;28;20102;-75
2022/06/28 09:34:01;;;;;;;31.17;8.55;;;;;;;;;;5110698;28;20073;-74
2022/06/28 09:36:28;;;;;;;31.10;9.35;;;;;;;;;;5107804;28;20032;-78
2022/06/28 09:38:56;;;;;;;32.63;10.13;;;;;;;;;;5115841;27;20068;-75
2022/06/28 09:41:29;;;;;;;40.22;10.35;;;;;;;;;;5110321;28;20027;-78
2022/06/28 09:43:55;;;;;;;39.15;10.25;;;;;;;;;;5093777;28;20118;-73
2022/06/28 09:46:23;;;;;;;34.13;10.05;;;;;;;;;;5098998;28;20023;-74
2022/06/28 09:48:49;;;;;;;35.92;10.35;;;;;;;;;;5098553;28;20031;-74
2022/06/28 09:51:22;;;;;;;30.65;8.68;;;;;;;;;;5098431;28;20016;-73
2022/06/28 09:53:49;;;;;;;29.40;8.35;;;;;;;;;;5091728;28;20122;-76
2022/06/28 09:56:15;;;;;;;30.67;9.63;;;;;;;;;;5094381;28;20027;-73
2022/06/28 09:58:42;;;;;;;34.03;9.50;;;;;;;;;;5097833;28;20028;-73
2022/06/28 10:01:08;;;;;;;31.63;9.73;;;;;;;;;;5093772;28;20024;-73
2022/06/28 10:03:34;;;;;;;34.85;9.85;;;;;;;;;;5084871;28;20110;-73
2022/06/28 10:06:02;;;;;;;39.25;9.27;;;;;;;;;;5094887;28;20112;-78
2022/06/28 10:08:28;;;;;;;27.38;8.75;;;;;;;;;;5098779;28;20036;-73
2022/06/28 10:10:54;;;;;;;31.75;10.15;;;;;;;;;;5090135;28;20020;-74
2022/06/28 10:16:13;;;;;;;36.90;9.43;;;;;;;;;;5098536;28;20119;-74
2022/06/28 10:18:41;;;;;;;36.58;9.80;;;;;;;;;;5097998;28;20053;-74
2022/06/28 10:21:08;;;;;;;37.75;9.63;;;;;;;;;;5101902;28;20020;-74
2022/06/28 10:23:40;;;;;;;48.33;9.93;;;;;;;;;;5101572;28;20494;-74
2022/06/28 10:26:08;;;;;;;38.65;10.50;;;;;;;;;;5099728;28;20032;-74
2022/06/28 10:28:35;;;;;;;36.70;8.55;;;;;;;;;;5101472;28;20027;-74
2022/06/28 10:31:20;;;;;;;36.15;9.02;;;;;;;;;;5102271;28;20026;-74
2022/06/28 10:33:46;;;;;;;30.10;9.40;;;;;;;;;;5101578;28;20123;-74
2022/06/28 10:36:13;;;;;;;36.85;10.25;;;;;;;;;;5101730;28;20131;-74
2022/06/28 10:38:59;;;;;;;37.92;9.98;;;;;;;;;;5100174;28;20026;-76
2022/06/28 10:41:36;;;;;;;38.60;10.25;;;;;;;;;;5095059;28;20028;-75
2022/06/28 10:44:06;;;;;;;36.75;9.18;;;;;;;;;;5095197;28;20059;-75
2022/06/28 10:46:32;;;;;;;31.38;9.63;;;;;;;;;;5101741;28;20032;-74
2022/06/28 10:49:08;;;;;;;33.05;8.73;;;;;;;;;;5101103;27;20069;-74
2022/06/28 10:51:36;;;;;;;32.58;8.65;;;;;;;;;;5100154;28;20649;-74
2022/06/28 10:54:06;;;;;;;34.08;9.57;;;;;;;;;;5101460;28;20560;-74
2022/06/28 10:56:42;;;;;;;34.35;9.10;;;;;;;;;;5101264;28;20038;-74
2022/06/28 10:59:10;;;;;;;35.72;9.10;;;;;;;;;;5099302;28;20671;-73
2022/06/28 11:01:42;;;;;;;31.95;9.60;;;;;;;;;;5117186;27;20032;-74
2022/06/28 11:04:10;;;;;;;41.00;9.38;;;;;;;;;;5101534;28;20200;-74
2022/06/28 11:06:47;;;;;;;39.10;9.18;;;;;;;;;;5099949;28;20030;-74
2022/06/28 11:09:32;;;;;;;31.60;9.00;;;;;;;;;;5101144;28;20024;-74
2022/06/28 11:12:16;;;;;;;34.33;9.05;;;;;;;;;;5101105;28;20504;-74
2022/06/28 11:14:54;;;;;;;35.35;9.73;;;;;;;;;;5099404;28;20020;-74
2022/06/28 11:17:22;;;;;;;35.08;9.93;;;;;;;;;;5101179;28;20036;-75
2022/06/28 11:19:53;;;;;;;45.58;9.73;;;;;;;;;;5100891;28;20069;-74
2022/06/28 11:22:20;;;;;;;41.70;9.65;;;;;;;;;;5099799;28;20394;-74
2022/06/28 11:24:46;;;;;;;36.17;9.23;;;;;;;;;;5101390;28;20019;-74
2022/06/28 11:27:22;;;;;;;32.45;8.88;;;;;;;;;;5101170;28;20031;-74
2022/06/28 11:29:49;;;;;;;39.42;9.68;;;;;;;;;;5099599;28;20018;-73
2022/06/28 11:32:16;;;;;;;39.15;10.00;;;;;;;;;;5099834;28;20083;-74
2022/06/28 11:34:42;;;;;;;42.03;9.60;;;;;;;;;;5100697;28;20522;-74
2022/06/28 11:37:09;;;;;;;25.40;8.43;;;;;;;;;;5097691;28;20039;-74
2022/06/28 11:39:35;;;;;;;39.50;9.15;;;;;;;;;;5094254;28;20028;-74
2022/06/28 11:42:01;;;;;;;42.00;9.20;;;;;;;;;;5098147;28;20027;-74
2022/06/28 11:44:27;;;;;;;27.63;9.07;;;;;;;;;;5099827;28;20231;-74
2022/06/28 11:46:54;;;;;;;29.88;8.75;;;;;;;;;;5098482;27;20053;-75
2022/06/28 11:49:30;;;;;;;35.38;9.20;;;;;;;;;;5100611;28;20093;-74
2022/06/28 11:51:56;;;;;;;27.15;8.35;;;;;;;;;;5100126;28;20034;-73
2022/06/28 11:54:22;;;;;;;36.42;9.52;;;;;;;;;;5100857;28;20038;-73
2022/06/28 11:56:49;;;;;;;30.52;8.20;;;;;;;;;;5099596;28;20031;-74
2022/06/28 11:59:15;;;;;;;32.05;9.38;;;;;;;;;;5098301;28;20023;-73
2022/06/28 12:01:42;;;;;;;39.92;10.60;;;;;;;;;;5098735;28;20028;-74
2022/06/28 12:04:10;;;;;;;34.40;9.52;;;;;;;;;;5099950;28;20024;-75
2022/06/28 12:06:39;;;;;;;42.90;8.88;;;;;;;;;;5100062;28;20516;-73
2022/06/28 12:09:06;;;;;;;34.75;9.57;;;;;;;;;;5099540;28;20475;-74
2022/06/28 12:11:32;;;;;;;31.45;8.93;;;;;;;;;;5098627;28;20019;-74
2022/06/28 12:13:58;;;;;;;34.30;9.60;;;;;;;;;;5099823;28;20080;-74
2022/06/28 12:16:28;;;;;;;36.90;9.25;;;;;;;;;;5099849;28;20062;-75
2022/06/28 12:18:55;;;;;;;35.92;9.18;;;;;;;;;;5097226;28;20023;-75
2022/06/28 12:21:21;;;;;;;50.40;9.90;;;;;;;;;;5098593;28;20021;-74
2022/06/28 12:23:48;;;;;;;39.88;9.35;;;;;;;;;;5103708;27;20111;-73
2022/06/28 12:26:14;;;;;;;31.50;8.48;;;;;;;;;;5110095;27;20440;-74
2022/06/28 12:28:40;;;;;;;27.98;8.55;;;;;;;;;;5106470;27;20047;-73
2022/06/28 12:31:06;;;;;;;35.28;8.77;;;;;;;;;;5112378;27;20019;-75
2022/06/28 12:33:33;;;;;;;38.33;8.13;;;;;;;;;;5084755;28;20031;-74
2022/06/28 12:35:59;;;;;;;29.42;7.72;;;;;;;;;;5089186;28;20038;-74
2022/06/28 12:38:25;;;;;;;34.00;9.05;;;;;;;;;;5105598;27;20027;-74
2022/06/28 12:40:51;;;;;;;36.72;8.40;;;;;;;;;;5107222;27;20030;-75
2022/06/28 12:43:17;;;;;;;32.13;8.02;;;;;;;;;;5099201;27;20052;-74
2022/06/28 12:45:43;;;;;;;34.95;9.13;;;;;;;;;;5096589;28;20024;-74
2022/06/28 12:48:09;;;;;;;40.80;9.35;;;;;;;;;;5099929;28;20031;-74
2022/06/28 12:50:36;;;;;;;36.40;8.48;;;;;;;;;;5099274;28;20020;-75
2022/06/28 12:53:02;;;;;;;28.63;8.63;;;;;;;;;;5098897;28;20027;-74
2022/06/28 12:55:28;;;;;;;31.83;8.77;;;;;;;;;;5097712;28;20219;-74
2022/06/28 12:57:54;;;;;;;29.98;8.60;;;;;;;;;;5094933;28;20097;-74
2022/06/28 13:00:20;;;;;;;39.72;8.65;;;;;;;;;;5092874;28;20028;-74
2022/06/28 13:02:46;;;;;;;30.02;7.50;;;;;;;;;;5099113;28;20023;-74
2022/06/28 13:05:12;;;;;;;26.02;8.18;;;;;;;;;;5099157;28;20032;-74
2022/06/28 13:07:41;;;;;;;41.15;8.65;;;;;;;;;;5097217;28;20618;-74
2022/06/28 13:10:09;;;;;;;33.92;8.27;;;;;;;;;;5099075;28;20035;-75
2022/06/28 13:12:35;;;;;;;35.72;8.57;;;;;;;;;;5098615;28;20034;-74
2022/06/28 13:15:01;;;;;;;28.48;8.13;;;;;;;;;;5099472;28;20024;-74
2022/06/28 13:17:27;;;;;;;35.83;8.30;;;;;;;;;;5099019;28;20035;-76
2022/06/28 13:19:53;;;;;;;30.38;8.65;;;;;;;;;;5096769;28;20027;-77
2022/06/28 13:22:20;;;;;;;29.85;7.80;;;;;;;;;;5097538;28;20031;-74
2022/06/28 13:24:46;;;;;;;46.50;8.52;;;;;;;;;;5098636;28;20043;-75
2022/06/28 13:27:12;;;;;;;31.42;8.88;;;;;;;;;;5098727;28;20104;-74
2022/06/28 13:29:38;;;;;;;39.88;9.73;;;;;;;;;;5103373;28;20031;-74
2022/06/28 13:32:04;;;;;;;30.98;8.23;;;;;;;;;;5098651;28;20028;-74
2022/06/28 13:34:31;;;;;;;31.10;9.30;;;;;;;;;;5097346;28;20024;-77
2022/06/28 13:37:00;;;;;;;48.95;8.70;;;;;;;;;;5098862;28;20027;-75
2022/06/28 13:39:26;;;;;;;32.03;8.52;;;;;;;;;;5099025;28;20051;-75
2022/06/28 13:41:52;;;;;;;27.35;8.10;;;;;;;;;;5097591;28;20613;-76
2022/06/28 13:44:20;;;;;;;30.02;8.63;;;;;;;;;;5086207;28;20081;-73
2022/06/28 13:46:46;;;;;;;30.23;8.65;;;;;;;;;;5099108;28;20052;-75
2022/06/28 13:49:13;;;;;;;35.10;8.63;;;;;;;;;;5096595;28;20035;-73
2022/06/28 13:51:39;;;;;;;36.22;8.63;;;;;;;;;;5098616;28;20039;-74
2022/06/28 13:54:06;;;;;;;37.20;9.70;;;;;;;;;;5086339;28;20028;-74
2022/06/28 13:56:33;;;;;;;30.85;8.90;;;;;;;;;;5102367;28;20030;-74
2022/06/28 13:58:59;;;;;;;31.88;10.00;;;;;;;;;;5099788;28;20382;-74
2022/06/28 14:01:26;;;;;;;35.90;9.50;;;;;;;;;;5101243;28;20164;-73
2022/06/28 14:03:52;;;;;;;27.67;9.55;;;;;;;;;;5102669;28;20023;-74
2022/06/28 14:06:18;;;;;;;42.67;12.35;;;;;;;;;;5103042;28;20031;-74
2022/06/28 14:08:44;;;;;;;41.55;11.18;;;;;;;;;;5100662;28;20024;-74
2022/06/28 14:11:10;;;;;;;39.53;11.85;;;;;;;;;;5094934;28;20032;-74
2022/06/28 14:13:36;;;;;;;34.67;11.25;;;;;;;;;;5102193;28;20027;-74
2022/06/28 14:16:03;;;;;;;32.63;11.32;;;;;;;;;;5101966;28;20085;-73
2022/06/28 14:18:29;;;;;;;37.38;11.90;;;;;;;;;;5100471;28;20038;-75
2022/06/28 14:20:55;;;;;;;37.25;11.25;;;;;;;;;;5101433;28;20089;-74
2022/06/28 14:23:21;;;;;;;39.65;11.30;;;;;;;;;;5102362;28;20030;-74
2022/06/28 14:25:47;;;;;;;32.33;11.75;;;;;;;;;;5102719;28;20028;-75
2022/06/28 14:28:13;;;;;;;41.22;10.82;;;;;;;;;;5100637;28;20023;-74
2022/06/28 14:30:40;;;;;;;42.92;11.55;;;;;;;;;;5099808;28;20047;-74
2022/06/28 14:33:06;;;;;;;50.97;13.32;;;;;;;;;;5101677;28;20471;-75
2022/06/28 14:35:33;;;;;;;36.60;11.00;;;;;;;;;;5093561;28;20027;-75
2022/06/28 14:37:59;;;;;;;33.83;10.20;;;;;;;;;;5096680;28;20485;-74